Time;durP1;ratioP1;P1;durP2;ratioP2;P2;SDS_P1;SDS_P2;PMS_P1;PMS_P2;Temp;Humidity;BMP_temperature;BMP_pressure;BME280_temperature;BME280_humidity;BME280_pressure;Samples;Min_cycle;Max_cycle;Signal;HPM_P1;HPM_P2
2023/01/24 00:01:24;;;;;;;0.17;0.17;;;4.60;99.90;;;;;;5029135;28;20041;-67
2023/01/24 00:03:50;;;;;;;0.20;0.20;;;4.70;99.90;;;;;;5029880;28;20041;-66
2023/01/24 00:06:16;;;;;;;1.60;1.52;;;4.70;99.90;;;;;;5031527;28;20042;-66
2023/01/24 00:08:42;;;;;;;0.20;0.20;;;4.70;99.90;;;;;;5029643;28;20061;-67
2023/01/24 00:11:10;;;;;;;0.30;0.30;;;4.70;99.90;;;;;;5030649;28;20101;-66
2023/01/24 00:13:37;;;;;;;0.98;0.90;;;4.70;99.90;;;;;;5029632;28;20049;-67
2023/01/24 00:16:14;;;;;;;0.10;0.10;;;4.70;99.90;;;;;;5030177;28;20110;-66
2023/01/24 00:18:40;;;;;;;0.30;0.30;;;4.60;99.90;;;;;;5037664;28;20041;-66
2023/01/24 00:21:12;;;;;;;0.85;0.85;;;4.70;99.90;;;;;;5030156;28;20038;-66
2023/01/24 00:23:40;;;;;;;0.10;0.10;;;4.70;99.90;;;;;;5029436;28;20179;-66
2023/01/24 00:26:06;;;;;;;0.52;0.52;;;4.60;99.90;;;;;;5025275;28;20041;-66
2023/01/24 00:28:32;;;;;;;0.15;0.15;;;4.70;99.90;;;;;;5027038;28;20423;-66
2023/01/24 00:30:57;;;;;;;0.63;0.63;;;4.70;99.90;;;;;;5029851;28;20157;-67
2023/01/24 00:33:23;;;;;;;3.10;1.75;;;4.70;99.90;;;;;;5030340;28;20129;-66
2023/01/24 00:35:52;;;;;;;0.77;0.68;;;4.70;99.90;;;;;;5027741;28;20124;-66
2023/01/24 00:38:19;;;;;;;0.10;0.10;;;4.70;99.90;;;;;;5023312;28;20141;-67
2023/01/24 00:40:45;;;;;;;0.10;0.10;;;4.70;99.90;;;;;;5029101;28;20087;-67
2023/01/24 00:43:10;;;;;;;0.80;0.80;;;4.70;99.90;;;;;;5028586;28;20049;-67
2023/01/24 00:45:37;;;;;;;0.30;0.30;;;4.70;99.90;;;;;;5028989;28;20072;-66
2023/01/24 00:48:04;;;;;;;0.20;0.20;;;4.70;99.90;;;;;;5012097;28;20481;-66
2023/01/24 00:50:30;;;;;;;4.07;1.77;;;4.70;99.90;;;;;;5009536;28;20064;-67
2023/01/24 00:52:56;;;;;;;0.47;0.47;;;4.70;99.90;;;;;;5021516;28;20038;-67
2023/01/24 00:55:21;;;;;;;0.20;0.20;;;4.70;99.90;;;;;;5030237;28;20041;-66
2023/01/24 00:57:47;;;;;;;0.52;0.52;;;4.70;99.90;;;;;;5026940;28;20520;-66
2023/01/24 01:00:13;;;;;;;0.25;0.25;;;4.70;99.90;;;;;;5028845;28;20042;-67
2023/01/24 01:02:39;;;;;;;0.35;0.35;;;4.70;99.90;;;;;;5029421;28;20042;-66
2023/01/24 01:05:05;;;;;;;0.20;0.20;;;4.70;99.90;;;;;;5028896;28;20056;-67
2023/01/24 01:07:31;;;;;;;0.20;0.20;;;4.70;99.90;;;;;;5029546;28;20037;-66
2023/01/24 01:09:56;;;;;;;0.20;0.20;;;4.70;99.90;;;;;;5028470;28;20095;-66
2023/01/24 01:12:22;;;;;;;0.40;0.40;;;4.70;99.90;;;;;;5029419;28;20053;-67
2023/01/24 01:14:47;;;;;;;0.15;0.15;;;4.70;99.90;;;;;;5028778;28;20501;-67
2023/01/24 01:17:14;;;;;;;1.40;1.30;;;4.70;99.90;;;;;;5027383;28;20033;-67
2023/01/24 01:19:39;;;;;;;0.80;0.32;;;4.70;99.90;;;;;;5010263;28;20455;-66
2023/01/24 01:22:05;;;;;;;0.57;0.57;;;4.70;99.90;;;;;;5027217;28;20045;-66
2023/01/24 01:24:31;;;;;;;0.10;0.10;;;4.70;99.90;;;;;;5028525;28;20050;-66
2023/01/24 01:26:56;;;;;;;0.15;0.15;;;4.70;99.90;;;;;;5028199;28;20048;-66
2023/01/24 01:29:22;;;;;;;0.25;0.25;;;4.70;99.90;;;;;;5009662;28;20057;-67
2023/01/24 01:31:47;;;;;;;0.65;0.65;;;4.60;99.90;;;;;;5028516;28;20037;-66
2023/01/24 01:34:13;;;;;;;0.22;0.22;;;4.60;99.90;;;;;;5029516;28;20041;-66
2023/01/24 01:36:39;;;;;;;0.63;0.63;;;4.60;99.90;;;;;;5015706;28;20037;-66
2023/01/24 01:39:04;;;;;;;0.30;0.30;;;4.60;99.90;;;;;;5024193;28;20087;-67
2023/01/24 01:41:30;;;;;;;0.73;0.73;;;4.70;99.90;;;;;;5019780;28;20098;-67
2023/01/24 01:46:42;;;;;;;;;;;4.70;99.90;;;;;;5019056;28;20077;-67
2023/01/24 01:49:21;;;;;;;0.43;0.43;;;4.70;99.90;;;;;;5026665;28;19929;-67
2023/01/24 01:51:49;;;;;;;0.75;0.75;;;4.60;99.90;;;;;;5028336;28;20049;-67
2023/01/24 01:54:20;;;;;;;0.10;0.10;;;4.70;99.90;;;;;;5028090;28;20477;-66
2023/01/24 01:56:52;;;;;;;0.68;0.68;;;4.70;99.90;;;;;;5027629;28;20443;-66
2023/01/24 01:59:38;;;;;;;0.90;0.90;;;4.70;99.90;;;;;;5027955;28;20107;-66
2023/01/24 02:02:06;;;;;;;0.73;0.73;;;4.60;99.90;;;;;;5010238;28;20056;-66
2023/01/24 02:04:35;;;;;;;0.35;0.35;;;4.60;99.90;;;;;;5011192;28;20054;-66
2023/01/24 02:07:09;;;;;;;0.55;0.55;;;4.70;99.90;;;;;;5027753;28;20056;-66
2023/01/24 02:09:40;;;;;;;0.20;0.20;;;4.60;99.90;;;;;;5028167;28;20091;-66
2023/01/24 02:12:11;;;;;;;0.30;0.30;;;4.60;99.90;;;;;;5027400;28;20037;-66
2023/01/24 02:17:22;;;;;;;0.52;0.52;;;4.60;99.90;;;;;;5022432;28;20049;-66
2023/01/24 02:20:17;;;;;;;0.32;0.32;;;4.60;99.90;;;;;;5024652;28;20735;-67
2023/01/24 02:22:56;;;;;;;0.10;0.10;;;4.60;99.90;;;;;;5024870;28;20041;-66
2023/01/24 02:25:27;;;;;;;2.72;1.55;;;4.60;99.90;;;;;;5027366;28;20128;-66
2023/01/24 02:27:55;;;;;;;0.10;0.10;;;4.60;99.90;;;;;;5025573;28;20037;-66
2023/01/24 02:30:21;;;;;;;0.10;0.10;;;4.60;99.90;;;;;;5024745;28;20132;-66
2023/01/24 02:32:46;;;;;;;0.10;0.10;;;4.70;99.90;;;;;;5027864;28;20120;-66
2023/01/24 02:35:26;;;;;;;0.80;0.52;;;4.60;99.90;;;;;;5025807;28;20041;-67
2023/01/24 02:37:53;;;;;;;1.33;1.23;;;4.60;99.90;;;;;;5026739;28;20084;-66
2023/01/24 02:40:19;;;;;;;1.00;1.00;;;4.60;99.90;;;;;;5028444;28;20049;-67
2023/01/24 02:42:45;;;;;;;0.10;0.10;;;4.60;99.90;;;;;;5025576;28;20354;-66
2023/01/24 02:45:17;;;;;;;0.28;0.28;;;4.60;99.90;;;;;;5027222;28;20539;-66
2023/01/24 02:47:48;;;;;;;0.20;0.20;;;4.60;99.90;;;;;;5025926;28;20547;-67
2023/01/24 02:50:15;;;;;;;1.10;1.05;;;4.60;99.90;;;;;;5029086;28;20534;-67
2023/01/24 02:55:25;;;;;;;0.10;0.10;;;4.60;99.90;;;;;;5011342;28;20466;-67
2023/01/24 02:58:06;;;;;;;0.10;0.10;;;4.60;99.90;;;;;;5023684;28;20085;-66
2023/01/24 03:00:38;;;;;;;0.73;0.73;;;4.60;99.90;;;;;;5027099;28;20079;-66
2023/01/24 03:03:04;;;;;;;0.40;0.40;;;4.60;99.90;;;;;;5031285;28;20042;-67
2023/01/24 03:05:56;;;;;;;0.22;0.22;;;4.60;99.90;;;;;;5013348;28;20099;-67
2023/01/24 03:08:26;;;;;;;2.50;0.77;;;4.60;99.90;;;;;;5026926;28;20049;-67
2023/01/24 03:10:53;;;;;;;0.95;0.95;;;4.60;99.90;;;;;;5030479;28;20500;-67
2023/01/24 03:35:14;;;;;;;0.10;0.10;;;4.60;99.90;;;;;;5027471;28;20691;-66
2023/01/24 03:40:25;;;;;;;0.20;0.20;;;4.60;99.90;;;;;;5031229;28;20119;-66
2023/01/24 03:42:51;;;;;;;0.17;0.17;;;4.70;99.90;;;;;;5012619;28;20091;-67
2023/01/24 03:45:19;;;;;;;0.30;0.30;;;4.70;99.90;;;;;;5029308;28;20127;-66
2023/01/24 03:47:56;;;;;;;0.15;0.15;;;4.70;99.90;;;;;;5008370;28;20049;-66
2023/01/24 03:53:13;;;;;;;0.10;0.10;;;4.60;99.90;;;;;;5020684;28;20050;-66
2023/01/24 03:55:39;;;;;;;0.10;0.10;;;4.70;99.90;;;;;;5030104;28;20187;-66
2023/01/24 03:58:06;;;;;;;0.55;0.55;;;4.70;99.90;;;;;;5013011;28;20056;-66
2023/01/24 04:00:32;;;;;;;0.10;0.10;;;4.70;99.90;;;;;;5012483;28;20389;-66
2023/01/24 04:02:58;;;;;;;0.47;0.47;;;4.70;99.90;;;;;;5027789;28;20496;-66
2023/01/24 04:05:24;;;;;;;0.38;0.38;;;4.70;99.90;;;;;;5029967;28;20117;-67
2023/01/24 04:07:49;;;;;;;0.20;0.20;;;4.70;99.90;;;;;;5028690;28;20038;-66
2023/01/24 04:10:16;;;;;;;0.98;0.65;;;4.60;99.90;;;;;;5030534;28;20041;-66
2023/01/24 04:12:43;;;;;;;1.75;1.10;;;4.60;99.90;;;;;;5029941;28;20041;-66
2023/01/24 04:15:13;;;;;;;0.10;0.10;;;4.70;99.90;;;;;;5028881;28;20042;-66
2023/01/24 04:17:39;;;;;;;0.20;0.20;;;4.70;99.90;;;;;;5012113;28;20056;-66
2023/01/24 04:20:05;;;;;;;0.38;0.38;;;4.70;99.90;;;;;;5009730;28;20596;-66
2023/01/24 04:22:30;;;;;;;0.10;0.10;;;4.70;99.90;;;;;;5030477;28;20396;-67
2023/01/24 04:24:56;;;;;;;0.38;0.38;;;4.70;99.90;;;;;;5028239;28;20038;-66
2023/01/24 04:27:22;;;;;;;0.55;0.55;;;4.60;99.90;;;;;;5029317;28;20451;-67
2023/01/24 04:29:47;;;;;;;1.02;0.90;;;4.60;99.90;;;;;;5025347;28;20136;-66
2023/01/24 04:32:13;;;;;;;1.45;1.17;;;4.60;99.90;;;;;;5031041;28;20034;-67
2023/01/24 04:34:39;;;;;;;0.40;0.40;;;4.70;99.90;;;;;;5029796;28;20053;-66
2023/01/24 04:37:05;;;;;;;0.10;0.10;;;4.60;99.90;;;;;;5028888;28;21029;-67
2023/01/24 04:39:30;;;;;;;1.25;1.15;;;4.60;99.90;;;;;;5029543;28;20124;-66
2023/01/24 04:41:56;;;;;;;0.10;0.10;;;4.60;99.90;;;;;;5012204;28;20072;-66
2023/01/24 04:44:22;;;;;;;0.45;0.45;;;4.60;99.90;;;;;;5030232;28;20124;-66
2023/01/24 04:46:47;;;;;;;0.80;0.80;;;4.70;99.90;;;;;;5011376;28;20061;-66
2023/01/24 04:49:13;;;;;;;0.57;0.57;;;4.60;99.90;;;;;;5027612;28;20069;-67
2023/01/24 04:51:42;;;;;;;0.20;0.20;;;4.60;99.90;;;;;;5008298;28;20057;-66
2023/01/24 04:54:09;;;;;;;0.30;0.30;;;4.60;99.90;;;;;;5008861;28;20107;-67
2023/01/24 04:56:34;;;;;;;0.10;0.10;;;4.60;99.90;;;;;;5028140;28;20075;-66
2023/01/24 04:59:00;;;;;;;0.13;0.13;;;4.60;99.90;;;;;;5028603;28;20443;-66
2023/01/24 05:01:25;;;;;;;0.20;0.20;;;4.60;99.90;;;;;;5030335;28;20049;-66
2023/01/24 05:03:51;;;;;;;0.17;0.17;;;4.60;99.90;;;;;;5028089;28;20025;-66
2023/01/24 05:06:16;;;;;;;0.50;0.50;;;4.60;99.90;;;;;;5027737;28;20069;-66
2023/01/24 05:08:42;;;;;;;0.65;0.65;;;4.60;99.90;;;;;;5028993;28;20041;-66
2023/01/24 05:11:08;;;;;;;0.10;0.10;;;4.60;99.90;;;;;;5027576;28;20060;-66
2023/01/24 05:13:33;;;;;;;0.20;0.20;;;4.60;99.90;;;;;;5028995;28;20481;-66
2023/01/24 05:15:59;;;;;;;2.17;2.08;;;4.60;99.90;;;;;;5028176;28;20528;-66
2023/01/24 05:18:24;;;;;;;0.10;0.10;;;4.60;99.90;;;;;;5028422;28;20079;-66
2023/01/24 05:20:50;;;;;;;0.55;0.55;;;4.50;99.90;;;;;;5028055;28;20037;-66
2023/01/24 05:23:15;;;;;;;0.82;0.77;;;4.60;99.90;;;;;;5028427;28;20084;-66
2023/01/24 05:25:41;;;;;;;0.65;0.65;;;4.60;99.90;;;;;;5028380;28;20034;-67
2023/01/24 05:28:06;;;;;;;0.20;0.20;;;4.50;99.90;;;;;;5028771;28;20128;-67
2023/01/24 05:30:32;;;;;;;0.10;0.10;;;4.50;99.90;;;;;;5027915;28;20465;-67
2023/01/24 05:32:58;;;;;;;0.32;0.32;;;4.50;99.90;;;;;;5028044;28;20055;-67
2023/01/24 05:35:24;;;;;;;0.30;0.30;;;4.50;99.90;;;;;;5010667;28;20041;-66
2023/01/24 05:37:50;;;;;;;0.30;0.30;;;4.50;99.90;;;;;;5027334;28;20038;-66
2023/01/24 05:40:16;;;;;;;0.75;0.75;;;4.50;99.90;;;;;;5029197;28;20072;-67
2023/01/24 05:42:42;;;;;;;0.88;0.88;;;4.50;99.90;;;;;;5028480;28;20029;-67
2023/01/24 05:45:09;;;;;;;1.00;0.95;;;4.50;99.90;;;;;;5027598;28;20049;-66
2023/01/24 05:47:35;;;;;;;0.30;0.30;;;4.50;99.90;;;;;;5026401;28;20515;-66
2023/01/24 05:50:00;;;;;;;3.83;0.73;;;4.50;99.90;;;;;;5027693;28;20050;-66
2023/01/24 05:52:26;;;;;;;1.27;1.17;;;4.50;99.90;;;;;;5027768;28;20084;-66
2023/01/24 05:54:52;;;;;;;0.10;0.10;;;4.50;99.90;;;;;;5027548;28;20037;-66
2023/01/24 05:57:17;;;;;;;0.10;0.10;;;4.50;99.90;;;;;;5008174;28;20049;-67
2023/01/24 05:59:43;;;;;;;0.20;0.20;;;4.50;99.90;;;;;;5026877;28;20049;-66
2023/01/24 06:02:09;;;;;;;0.10;0.10;;;4.50;99.90;;;;;;5027339;28;20094;-66
2023/01/24 06:04:35;;;;;;;0.10;0.10;;;4.40;99.90;;;;;;5027486;28;20041;-66
2023/01/24 06:07:00;;;;;;;0.50;0.50;;;4.50;99.90;;;;;;5024080;28;20599;-66
2023/01/24 06:09:26;;;;;;;0.13;0.13;;;4.40;99.90;;;;;;5028964;28;20129;-66
2023/01/24 06:11:52;;;;;;;0.40;0.40;;;4.40;99.90;;;;;;5027872;28;20041;-66
2023/01/24 06:14:18;;;;;;;0.10;0.10;;;4.40;99.90;;;;;;5009658;28;20511;-66
2023/01/24 06:16:45;;;;;;;0.10;0.10;;;4.40;99.90;;;;;;5024723;28;20048;-66
2023/01/24 06:19:11;;;;;;;0.55;0.55;;;4.40;99.90;;;;;;5027548;28;20046;-66
2023/01/24 06:21:37;;;;;;;0.30;0.30;;;4.40;99.90;;;;;;5026648;28;20045;-66
2023/01/24 06:24:04;;;;;;;0.22;0.22;;;4.40;99.90;;;;;;5027834;28;20051;-67
2023/01/24 06:26:31;;;;;;;0.75;0.75;;;4.40;99.90;;;;;;5026407;28;20068;-66
2023/01/24 06:28:56;;;;;;;0.32;0.30;;;4.40;99.90;;;;;;5026091;28;20053;-67
2023/01/24 06:31:38;;;;;;;0.15;0.15;;;4.50;99.90;;;;;;5026470;28;20045;-67
2023/01/24 06:34:12;;;;;;;0.10;0.10;;;4.50;99.90;;;;;;5027448;28;20045;-66
2023/01/24 06:36:53;;;;;;;0.10;0.10;;;4.40;99.90;;;;;;5026858;28;20037;-66
2023/01/24 06:39:20;;;;;;;0.10;0.10;;;4.40;99.90;;;;;;5028535;28;20492;-66
2023/01/24 06:41:47;;;;;;;0.43;0.43;;;4.40;99.90;;;;;;5021859;28;20183;-66
2023/01/24 06:44:13;;;;;;;2.05;1.48;;;4.40;99.90;;;;;;5010502;28;20110;-66
2023/01/24 06:46:38;;;;;;;0.20;0.20;;;4.40;99.90;;;;;;5026835;28;20049;-66
2023/01/24 06:49:04;;;;;;;3.33;2.15;;;4.40;99.90;;;;;;5009372;28;20061;-66
2023/01/24 06:51:30;;;;;;;0.50;0.50;;;4.40;99.90;;;;;;5026277;28;20057;-66
2023/01/24 06:53:55;;;;;;;1.45;1.35;;;4.40;99.90;;;;;;5027588;28;20037;-66
2023/01/24 06:56:21;;;;;;;0.75;0.75;;;4.40;99.90;;;;;;5025946;28;20473;-66
2023/01/24 06:58:47;;;;;;;3.92;0.85;;;4.40;99.90;;;;;;5026769;28;20132;-66
2023/01/24 07:01:13;;;;;;;0.05;0.05;;;4.30;99.90;;;;;;5007895;28;20063;-66
2023/01/24 07:03:38;;;;;;;1.08;0.68;;;4.40;99.90;;;;;;5026177;28;20118;-66
2023/01/24 07:06:04;;;;;;;0.20;0.20;;;4.40;99.90;;;;;;5022103;28;20042;-66
2023/01/24 07:08:30;;;;;;;1.30;1.10;;;4.30;99.90;;;;;;5028777;28;20038;-66
2023/01/24 07:10:58;;;;;;;0.10;0.10;;;4.30;99.90;;;;;;5026984;28;20042;-66
2023/01/24 07:13:23;;;;;;;0.68;0.68;;;4.30;99.90;;;;;;5027810;28;20480;-66
2023/01/24 07:15:49;;;;;;;0.10;0.10;;;4.30;99.90;;;;;;5025154;28;20065;-66
2023/01/24 07:18:17;;;;;;;0.50;0.50;;;4.30;99.90;;;;;;5027248;28;20550;-66
2023/01/24 07:20:43;;;;;;;0.10;0.10;;;4.30;99.90;;;;;;5025796;28;20038;-66
2023/01/24 07:23:24;;;;;;;2.10;1.90;;;4.30;99.90;;;;;;5024834;28;20048;-67
2023/01/24 07:25:51;;;;;;;0.38;0.38;;;4.30;99.90;;;;;;5026124;28;20538;-67
2023/01/24 07:28:17;;;;;;;0.22;0.22;;;4.30;99.90;;;;;;5024148;28;20125;-67
2023/01/24 07:30:45;;;;;;;0.20;0.20;;;4.30;99.90;;;;;;5024757;28;20037;-67
2023/01/24 07:33:14;;;;;;;0.68;0.68;;;4.30;99.90;;;;;;5027604;28;20159;-67
2023/01/24 07:35:41;;;;;;;0.30;0.30;;;4.30;99.90;;;;;;5024629;28;20124;-67
2023/01/24 07:38:06;;;;;;;0.90;0.90;;;4.30;99.90;;;;;;5038788;28;20040;-67
2023/01/24 07:40:32;;;;;;;0.65;0.65;;;4.30;99.90;;;;;;5039091;28;20042;-67
2023/01/24 07:43:02;;;;;;;0.93;0.93;;;4.30;99.90;;;;;;5031146;28;20436;-66
2023/01/24 07:45:28;;;;;;;0.57;0.57;;;4.30;99.90;;;;;;5029062;28;20072;-67
2023/01/24 07:47:55;;;;;;;0.52;0.52;;;4.30;99.90;;;;;;5029176;28;20095;-67
2023/01/24 07:50:21;;;;;;;0.15;0.15;;;4.30;99.90;;;;;;5028673;28;20057;-67
2023/01/24 07:52:50;;;;;;;0.10;0.10;;;4.30;99.90;;;;;;5029542;28;20045;-66
2023/01/24 07:55:16;;;;;;;1.48;1.30;;;4.30;99.90;;;;;;5029179;28;20042;-66
2023/01/24 07:57:41;;;;;;;0.63;0.63;;;4.30;99.90;;;;;;5031032;28;20037;-67
2023/01/24 08:00:08;;;;;;;0.38;0.38;;;4.30;99.90;;;;;;5006803;28;20053;-67
2023/01/24 08:02:33;;;;;;;0.20;0.20;;;4.30;99.90;;;;;;5018426;28;20042;-65
2023/01/24 08:04:59;;;;;;;0.20;0.20;;;4.30;99.90;;;;;;5025137;28;20444;-64
2023/01/24 08:07:24;;;;;;;0.20;0.20;;;4.30;99.90;;;;;;5009375;28;20557;-64
2023/01/24 08:09:50;;;;;;;0.10;0.10;;;4.30;99.90;;;;;;5009727;28;20477;-64
2023/01/24 08:12:16;;;;;;;2.00;0.85;;;4.20;99.90;;;;;;5006648;28;20046;-64
2023/01/24 08:14:41;;;;;;;0.35;0.35;;;4.30;99.90;;;;;;5028913;28;20041;-64
2023/01/24 08:17:07;;;;;;;0.93;0.93;;;4.30;99.90;;;;;;5023220;28;20053;-64
2023/01/24 08:19:33;;;;;;;0.30;0.30;;;4.20;99.90;;;;;;5026275;28;20539;-63
2023/01/24 08:21:59;;;;;;;1.02;1.02;;;4.30;99.90;;;;;;5025686;28;20045;-66
2023/01/24 08:24:24;;;;;;;0.90;0.88;;;4.30;99.90;;;;;;5026555;28;20072;-67
2023/01/24 08:26:50;;;;;;;0.85;0.85;;;4.30;99.90;;;;;;5027217;28;20476;-67
2023/01/24 08:29:16;;;;;;;0.20;0.20;;;4.30;99.90;;;;;;5027577;28;20054;-67
2023/01/24 08:31:42;;;;;;;2.78;1.67;;;4.20;99.90;;;;;;5027349;28;20385;-67
2023/01/24 08:34:09;;;;;;;0.22;0.22;;;4.30;99.90;;;;;;5023132;28;20033;-67
2023/01/24 08:36:35;;;;;;;0.17;0.17;;;4.30;99.90;;;;;;5026807;28;20403;-67
2023/01/24 08:39:02;;;;;;;1.10;1.10;;;4.30;99.90;;;;;;5017180;28;20077;-67
2023/01/24 08:41:28;;;;;;;0.10;0.10;;;4.30;99.90;;;;;;5010251;28;20103;-66
2023/01/24 08:43:54;;;;;;;0.82;0.82;;;4.30;99.90;;;;;;5027925;28;20041;-67
2023/01/24 08:46:19;;;;;;;0.45;0.45;;;4.30;99.90;;;;;;5030389;28;20049;-67
2023/01/24 08:48:45;;;;;;;0.30;0.30;;;4.30;99.90;;;;;;5025655;28;20045;-65
2023/01/24 08:51:10;;;;;;;0.80;0.80;;;4.20;99.90;;;;;;5028567;28;20481;-64
2023/01/24 08:53:36;;;;;;;2.05;1.50;;;4.20;99.90;;;;;;5028258;28;20053;-64
2023/01/24 08:56:02;;;;;;;0.30;0.30;;;4.20;99.90;;;;;;5025603;28;20045;-64
2023/01/24 08:58:28;;;;;;;0.55;0.55;;;4.20;99.90;;;;;;5027274;28;20041;-65
2023/01/24 09:00:53;;;;;;;0.90;0.90;;;4.20;99.90;;;;;;5027887;28;20084;-65
2023/01/24 09:03:19;;;;;;;1.27;1.17;;;4.20;99.90;;;;;;5027971;28;20400;-65
2023/01/24 09:05:45;;;;;;;0.65;0.65;;;4.20;99.90;;;;;;5025937;28;20120;-65
2023/01/24 09:08:11;;;;;;;2.20;2.00;;;4.20;99.90;;;;;;5006449;28;20060;-67
2023/01/24 09:10:38;;;;;;;0.73;0.73;;;4.20;99.90;;;;;;5022084;28;20064;-66
2023/01/24 09:13:03;;;;;;;0.38;0.38;;;4.20;99.90;;;;;;5026233;28;20413;-67
2023/01/24 09:15:30;;;;;;;0.82;0.82;;;4.10;99.90;;;;;;5024870;28;20049;-67
2023/01/24 09:17:55;;;;;;;1.40;1.30;;;4.10;99.90;;;;;;5007949;28;20048;-67
2023/01/24 09:20:21;;;;;;;1.65;1.42;;;4.10;99.90;;;;;;5025937;28;20037;-67
2023/01/24 09:22:47;;;;;;;0.73;0.73;;;4.10;99.90;;;;;;5025259;28;20501;-67
2023/01/24 09:25:13;;;;;;;0.10;0.10;;;4.20;99.90;;;;;;5017793;28;20057;-67
2023/01/24 09:27:42;;;;;;;0.52;0.52;;;4.20;99.90;;;;;;5024666;28;20045;-66
2023/01/24 09:30:09;;;;;;;0.13;0.13;;;4.20;99.90;;;;;;5021468;28;20053;-67
2023/01/24 09:32:35;;;;;;;1.10;1.00;;;4.20;99.90;;;;;;5004085;28;20037;-66
2023/01/24 09:35:01;;;;;;;0.38;0.38;;;4.20;99.90;;;;;;5023742;28;20060;-67
2023/01/24 09:37:27;;;;;;;0.30;0.30;;;4.20;99.90;;;;;;5022058;28;20500;-66
2023/01/24 09:39:55;;;;;;;0.88;0.88;;;4.20;99.90;;;;;;5025065;28;20436;-67
2023/01/24 09:42:40;;;;;;;0.20;0.20;;;4.20;99.90;;;;;;5023548;28;20103;-67
2023/01/24 09:45:35;;;;;;;1.48;1.38;;;4.20;99.90;;;;;;5023325;28;20289;-67
2023/01/24 09:48:05;;;;;;;0.10;0.10;;;4.20;99.90;;;;;;5024332;28;20060;-67
2023/01/24 09:50:39;;;;;;;1.38;1.10;;;4.20;99.90;;;;;;5023932;28;20056;-67
2023/01/24 09:53:04;;;;;;;0.95;0.63;;;4.20;99.90;;;;;;5021727;28;20390;-67
2023/01/24 09:55:36;;;;;;;0.93;0.68;;;4.30;99.90;;;;;;5027962;28;20133;-66
2023/01/24 09:58:33;;;;;;;0.52;0.52;;;4.30;99.90;;;;;;5007824;28;20052;-64
2023/01/24 10:01:06;;;;;;;0.28;0.28;;;4.30;99.90;;;;;;5026246;28;20477;-66
2023/01/24 10:03:33;;;;;;;0.25;0.25;;;4.30;99.90;;;;;;5027394;28;20050;-66
2023/01/24 10:06:07;;;;;;;0.52;0.52;;;4.30;99.90;;;;;;5007312;28;20037;-66
2023/01/24 10:08:49;;;;;;;2.33;0.65;;;4.30;99.90;;;;;;5027183;28;20033;-66
2023/01/24 10:12:11;;;;;;;3.03;1.75;;;4.30;99.90;;;;;;5018195;28;20410;-66
2023/01/24 10:14:36;;;;;;;0.28;0.28;;;4.30;99.90;;;;;;5023267;28;20164;-66
2023/01/24 10:17:08;;;;;;;0.43;0.43;;;4.30;99.90;;;;;;5026917;28;20617;-66
2023/01/24 10:20:12;;;;;;;0.60;0.60;;;4.30;99.90;;;;;;5010393;28;20052;-66
2023/01/24 10:22:53;;;;;;;0.75;0.75;;;4.40;99.90;;;;;;5026758;28;20037;-66
2023/01/24 10:25:41;;;;;;;0.75;0.75;;;4.40;99.90;;;;;;5025189;28;20049;-66
2023/01/24 10:28:27;;;;;;;0.50;0.50;;;4.30;99.90;;;;;;5028343;28;20045;-67
2023/01/24 10:31:00;;;;;;;0.45;0.45;;;4.30;99.90;;;;;;5027731;28;20072;-66
2023/01/24 10:33:31;;;;;;;1.10;1.10;;;4.40;99.90;;;;;;5027493;28;20048;-66
2023/01/24 10:36:01;;;;;;;2.10;1.90;;;4.30;99.90;;;;;;5026222;28;20421;-67
2023/01/24 10:38:27;;;;;;;0.10;0.10;;;4.30;99.90;;;;;;5022252;28;20060;-66
2023/01/24 10:40:56;;;;;;;2.28;2.08;;;4.30;99.90;;;;;;5019501;28;20042;-66
2023/01/24 10:43:28;;;;;;;1.45;0.95;;;4.30;99.90;;;;;;5023880;28;20131;-67
2023/01/24 10:45:57;;;;;;;0.55;0.55;;;4.30;99.90;;;;;;5022244;28;20044;-66
2023/01/24 10:48:52;;;;;;;0.75;0.75;;;4.30;99.90;;;;;;5025165;28;20056;-66
2023/01/24 10:51:21;;;;;;;1.30;1.27;;;4.30;99.90;;;;;;5022668;28;20441;-66
2023/01/24 10:53:47;;;;;;;2.28;0.98;;;4.30;99.90;;;;;;5021950;28;20337;-66
2023/01/24 10:56:14;;;;;;;0.17;0.17;;;4.30;99.90;;;;;;5024175;28;20136;-67
2023/01/24 10:58:55;;;;;;;0.32;0.32;;;4.30;99.90;;;;;;5022552;28;20045;-66
2023/01/24 11:01:23;;;;;;;0.68;0.68;;;4.30;99.90;;;;;;5005853;28;20643;-66
2023/01/24 11:03:50;;;;;;;0.73;0.65;;;4.30;99.90;;;;;;5026033;28;20160;-66
2023/01/24 11:06:36;;;;;;;0.20;0.20;;;4.40;99.90;;;;;;5022195;28;20054;-66
2023/01/24 11:09:11;;;;;;;1.23;1.23;;;4.40;99.90;;;;;;5025614;28;20480;-66
2023/01/24 11:11:45;;;;;;;0.40;0.40;;;4.40;99.90;;;;;;5002907;28;20076;-66
2023/01/24 11:14:26;;;;;;;0.10;0.10;;;4.40;99.90;;;;;;5021697;28;20061;-66
2023/01/24 11:16:57;;;;;;;0.57;0.57;;;4.40;99.90;;;;;;5027859;28;20488;-66
2023/01/24 11:19:32;;;;;;;1.17;1.08;;;4.40;99.90;;;;;;5031234;28;20050;-66
2023/01/24 11:22:18;;;;;;;0.10;0.10;;;4.40;99.90;;;;;;5025495;28;20084;-66
2023/01/24 11:24:45;;;;;;;4.78;1.65;;;4.40;99.90;;;;;;5029370;28;20568;-66
2023/01/24 11:27:19;;;;;;;0.32;0.32;;;4.40;99.90;;;;;;5012477;28;20045;-66
2023/01/24 11:29:53;;;;;;;1.23;1.05;;;4.40;99.90;;;;;;5029288;28;20500;-65
2023/01/24 11:32:38;;;;;;;0.57;0.57;;;4.40;99.90;;;;;;5023190;28;20050;-66
2023/01/24 11:35:22;;;;;;;0.15;0.15;;;4.40;99.90;;;;;;5018032;28;20037;-68
2023/01/24 11:37:53;;;;;;;0.85;0.80;;;4.50;99.90;;;;;;5010844;28;20045;-68
2023/01/24 11:40:22;;;;;;;0.47;0.47;;;4.50;99.90;;;;;;5030988;28;20053;-67
2023/01/24 11:42:48;;;;;;;1.00;1.00;;;4.50;99.90;;;;;;5028219;28;20045;-68
2023/01/24 11:45:49;;;;;;;0.75;0.75;;;4.40;99.90;;;;;;5026468;28;20103;-66
2023/01/24 11:48:37;;;;;;;7.55;1.27;;;4.50;99.90;;;;;;5025865;28;20496;-67
2023/01/24 11:51:34;;;;;;;0.10;0.10;;;4.40;99.90;;;;;;5007360;28;20076;-67
2023/01/24 11:54:29;;;;;;;0.40;0.40;;;4.50;99.90;;;;;;5000584;28;20601;-67
2023/01/24 11:57:06;;;;;;;0.57;0.57;;;4.50;99.90;;;;;;4991352;28;20125;-67
2023/01/24 11:59:54;;;;;;;0.45;0.45;;;4.40;99.90;;;;;;4997936;28;20068;-67
2023/01/24 12:03:01;;;;;;;0.30;0.30;;;4.40;99.90;;;;;;4987538;28;20133;-67
2023/01/24 12:05:35;;;;;;;1.33;1.23;;;4.40;99.90;;;;;;4966819;28;20060;-67
2023/01/24 12:08:11;;;;;;;0.20;0.20;;;4.40;99.90;;;;;;4990646;28;20054;-67
2023/01/24 12:10:48;;;;;;;1.10;0.90;;;4.40;99.90;;;;;;5006864;28;20057;-67
2023/01/24 12:13:36;;;;;;;2.35;1.25;;;4.50;99.90;;;;;;4989911;28;20042;-68
2023/01/24 12:16:46;;;;;;;0.50;0.50;;;4.50;99.90;;;;;;5000417;28;20109;-65
2023/01/24 12:19:22;;;;;;;0.65;0.65;;;4.50;99.90;;;;;;4936520;29;20463;-65
2023/01/24 12:21:50;;;;;;;1.35;1.05;;;4.40;99.90;;;;;;4933121;28;20055;-66
2023/01/24 12:24:27;;;;;;;0.10;0.10;;;4.40;99.90;;;;;;4959740;28;20446;-66
2023/01/24 12:26:57;;;;;;;0.65;0.65;;;4.40;99.90;;;;;;5008911;28;20050;-67
2023/01/24 12:29:32;;;;;;;0.63;0.63;;;4.40;99.90;;;;;;5009538;28;20616;-66
2023/01/24 12:32:07;;;;;;;0.43;0.43;;;4.30;99.90;;;;;;4992563;28;20137;-66
2023/01/24 12:34:50;;;;;;;0.10;0.10;;;4.40;99.90;;;;;;4996707;28;20049;-66
2023/01/24 12:37:19;;;;;;;0.28;0.28;;;4.40;99.90;;;;;;4992608;28;20050;-66
2023/01/24 12:40:15;;;;;;;0.32;0.32;;;4.30;99.90;;;;;;4990585;28;20449;-66
2023/01/24 12:42:43;;;;;;;0.40;0.40;;;4.30;99.90;;;;;;4997179;28;20045;-66
2023/01/24 12:45:19;;;;;;;0.30;0.30;;;4.30;99.90;;;;;;4994455;28;20038;-66
2023/01/24 12:47:58;;;;;;;0.20;0.20;;;4.30;99.90;;;;;;5007268;28;20057;-67
2023/01/24 12:50:33;;;;;;;0.65;0.65;;;4.40;99.90;;;;;;5013187;28;20049;-65
2023/01/24 12:53:03;;;;;;;0.10;0.10;;;4.40;99.90;;;;;;5026431;28;20045;-64
2023/01/24 12:55:37;;;;;;;0.38;0.38;;;4.40;99.90;;;;;;5026628;28;20060;-64
2023/01/24 12:58:18;;;;;;;8.98;3.58;;;4.50;99.90;;;;;;5028200;28;20080;-65
2023/01/24 13:01:03;;;;;;;0.40;0.40;;;4.40;99.90;;;;;;5026052;28;20127;-66
2023/01/24 13:03:47;;;;;;;0.15;0.15;;;4.40;99.90;;;;;;5028868;28;20096;-66
2023/01/24 13:06:27;;;;;;;0.50;0.50;;;4.30;99.90;;;;;;5027045;28;20049;-66
2023/01/24 13:09:00;;;;;;;0.35;0.35;;;4.40;99.90;;;;;;5029093;28;20048;-66
2023/01/24 13:11:28;;;;;;;0.20;0.20;;;4.30;99.90;;;;;;5010549;28;20049;-66
2023/01/24 13:14:23;;;;;;;0.77;0.77;;;4.30;99.90;;;;;;5026550;28;20056;-66
2023/01/24 13:17:26;;;;;;;0.20;0.20;;;4.30;99.90;;;;;;5000398;28;20053;-66
2023/01/24 13:20:11;;;;;;;0.10;0.10;;;4.40;99.90;;;;;;5009750;28;20045;-66
2023/01/24 13:23:02;;;;;;;1.23;0.98;;;4.30;99.90;;;;;;5027296;28;20128;-66
2023/01/24 13:25:42;;;;;;;4.15;1.23;;;4.40;99.90;;;;;;5029496;28;20127;-66
2023/01/24 13:28:26;;;;;;;0.57;0.57;;;4.30;99.90;;;;;;5029317;28;20507;-66
2023/01/24 13:31:04;;;;;;;0.15;0.15;;;4.30;99.90;;;;;;5026541;28;20045;-66
2023/01/24 13:33:46;;;;;;;1.88;1.23;;;4.30;99.90;;;;;;5002047;28;20060;-66
2023/01/24 13:36:16;;;;;;;0.35;0.35;;;4.40;99.90;;;;;;5027561;28;20518;-66
2023/01/24 13:38:44;;;;;;;0.95;0.95;;;4.40;99.90;;;;;;5029161;28;20365;-66
2023/01/24 13:41:36;;;;;;;1.05;0.95;;;4.40;99.90;;;;;;5009204;28;20080;-66
2023/01/24 13:44:06;;;;;;;0.30;0.30;;;4.40;99.90;;;;;;5023940;28;20080;-66
2023/01/24 13:46:41;;;;;;;0.40;0.40;;;4.40;99.90;;;;;;5025360;28;20041;-66
2023/01/24 13:49:16;;;;;;;0.25;0.25;;;4.40;99.90;;;;;;5028746;28;20041;-66
2023/01/24 13:51:47;;;;;;;3.13;1.55;;;4.40;99.90;;;;;;5026703;28;20132;-66